N23GC TIST-KEWR
Flight info
| Callsign | N23GC |
|---|---|
| Flight time | N/A |
| Altitude | 40000 |
| Route | PALCO7 PALCO RTE6 SJU DCT ACONY Y185 DOZGO/N0484F430 Y185 DONQU/N0488F410 DCT LUCTI/M086F430 L454 OKONU/N0492F410 DCT YAALE Y497 MOUGH/N0494F430 Y497 SUBBS DCT CYN DCT GXU DCT RBV V249 METRO PHLBO4 |
| Aircraft | A359/H-SDE2E3GHIJ3J4J5LM1ORWXY/LB1D1 |
Departure
| Time | 2026-05-05 01:10 |
|---|---|
| Airport | Cyril E. King Airport (TIST) |
Arrival
| Time | N/A |
|---|---|
| Airport | Newark Liberty International Airport (KEWR) |
| Time | Latitude | Longitude | Altitude | Speed | Heading |
|---|---|---|---|---|---|
| 2026-05-05 00:31 | 18.33590 | -64.97255 | 38 ft | 0 kts | 178° |
| 2026-05-05 00:58 | 18.33594 | -64.97255 | 38 ft | 3 kts | 178° |
| 2026-05-05 00:58 | 18.33617 | -64.97256 | 38 ft | 4 kts | 185° |
| 2026-05-05 00:58 | 18.33636 | -64.97252 | 34 ft | 4 kts | 225° |
| 2026-05-05 00:59 | 18.33647 | -64.97233 | 36 ft | 4 kts | 258° |
| 2026-05-05 00:59 | 18.33651 | -64.97207 | 35 ft | 2 kts | 266° |
| 2026-05-05 00:59 | 18.33651 | -64.97205 | 36 ft | 0 kts | 266° |
| 2026-05-05 01:00 | 18.33651 | -64.97204 | 36 ft | 0 kts | 266° |
| 2026-05-05 01:01 | 18.33651 | -64.97202 | 36 ft | 0 kts | 266° |
| 2026-05-05 01:04 | 18.33650 | -64.97224 | 38 ft | 8 kts | 266° |
| 2026-05-05 01:04 | 18.33645 | -64.97294 | 38 ft | 12 kts | 266° |
| 2026-05-05 01:05 | 18.33640 | -64.97375 | 38 ft | 12 kts | 266° |
| 2026-05-05 01:05 | 18.33626 | -64.97473 | 38 ft | 13 kts | 262° |
| 2026-05-05 01:05 | 18.33617 | -64.97560 | 38 ft | 14 kts | 263° |
| 2026-05-05 01:05 | 18.33608 | -64.97653 | 38 ft | 12 kts | 265° |
| 2026-05-05 01:06 | 18.33603 | -64.97759 | 38 ft | 15 kts | 267° |
| 2026-05-05 01:06 | 18.33598 | -64.97853 | 38 ft | 11 kts | 267° |
| 2026-05-05 01:06 | 18.33595 | -64.97931 | 38 ft | 9 kts | 267° |
| 2026-05-05 01:06 | 18.33592 | -64.98006 | 38 ft | 12 kts | 267° |
| 2026-05-05 01:07 | 18.33588 | -64.98102 | 38 ft | 10 kts | 267° |
| 2026-05-05 01:07 | 18.33585 | -64.98190 | 38 ft | 11 kts | 268° |
| 2026-05-05 01:07 | 18.33583 | -64.98226 | 38 ft | 0 kts | 267° |
| 2026-05-05 01:08 | 18.33583 | -64.98228 | 38 ft | 4 kts | 267° |
| 2026-05-05 01:08 | 18.33581 | -64.98283 | 38 ft | 9 kts | 271° |
| 2026-05-05 01:08 | 18.33625 | -64.98331 | 38 ft | 11 kts | 344° |
| 2026-05-05 01:08 | 18.33689 | -64.98286 | 36 ft | 14 kts | 77° |
| 2026-05-05 01:09 | 18.33691 | -64.98255 | 36 ft | 0 kts | 88° |
| 2026-05-05 01:09 | 18.33691 | -64.98254 | 36 ft | 2 kts | 88° |
| 2026-05-05 01:09 | 18.33703 | -64.97987 | 38 ft | 79 kts | 87° |
| 2026-05-05 01:09 | 18.33737 | -64.97129 | 45 ft | 153 kts | 88° |
| 2026-05-05 01:10 | 18.33780 | -64.95960 | 747 ft | 159 kts | 89° |
| 2026-05-05 01:10 | 18.33570 | -64.94839 | 1694 ft | 152 kts | 117° |
| 2026-05-05 01:10 | 18.32793 | -64.94156 | 2626 ft | 148 kts | 161° |
| 2026-05-05 01:10 | 18.31715 | -64.94288 | 3131 ft | 177 kts | 198° |
| 2026-05-05 01:11 | 18.30945 | -64.94764 | 3206 ft | 213 kts | 215° |
| 2026-05-05 01:11 | 18.29848 | -64.96058 | 3112 ft | 257 kts | 235° |
| 2026-05-05 01:11 | 18.28852 | -64.98414 | 3154 ft | 272 kts | 246° |
| 2026-05-05 01:11 | 18.28166 | -65.00272 | 3316 ft | 274 kts | 247° |
| 2026-05-05 01:12 | 18.27573 | -65.02206 | 3937 ft | 280 kts | 252° |
| 2026-05-05 01:12 | 18.27270 | -65.03549 | 4698 ft | 279 kts | 256° |
| 2026-05-05 01:12 | 18.26979 | -65.05569 | 5777 ft | 280 kts | 262° |
| 2026-05-05 01:12 | 18.26896 | -65.07634 | 6792 ft | 284 kts | 269° |
| 2026-05-05 01:13 | 18.27038 | -65.09695 | 7771 ft | 288 kts | 276° |
| 2026-05-05 01:13 | 18.27339 | -65.11780 | 8839 ft | 290 kts | 278° |
| 2026-05-05 01:13 | 18.27673 | -65.13876 | 9963 ft | 291 kts | 279° |
| 2026-05-05 01:13 | 18.28010 | -65.16011 | 10740 ft | 305 kts | 279° |
| 2026-05-05 01:14 | 18.28365 | -65.18299 | 11137 ft | 329 kts | 279° |
| 2026-05-05 01:14 | 18.28742 | -65.20753 | 11527 ft | 349 kts | 278° |
| 2026-05-05 01:14 | 18.29133 | -65.23318 | 12162 ft | 359 kts | 278° |
| 2026-05-05 01:14 | 18.29556 | -65.25933 | 12903 ft | 365 kts | 280° |
| 2026-05-05 01:15 | 18.30076 | -65.28572 | 13653 ft | 371 kts | 282° |
| 2026-05-05 01:15 | 18.30653 | -65.31232 | 14368 ft | 374 kts | 283° |
| 2026-05-05 01:15 | 18.31242 | -65.33892 | 15200 ft | 372 kts | 283° |
| 2026-05-05 01:15 | 18.31824 | -65.36544 | 16035 ft | 372 kts | 283° |
| 2026-05-05 01:16 | 18.32396 | -65.39206 | 16764 ft | 375 kts | 283° |
| 2026-05-05 01:16 | 18.32956 | -65.41860 | 17528 ft | 377 kts | 283° |
| 2026-05-05 01:16 | 18.33518 | -65.44564 | 18352 ft | 377 kts | 283° |
| 2026-05-05 01:16 | 18.34079 | -65.47282 | 18992 ft | 382 kts | 282° |
| 2026-05-05 01:17 | 18.34645 | -65.50039 | 19527 ft | 389 kts | 282° |
| 2026-05-05 01:17 | 18.35222 | -65.52847 | 20070 ft | 396 kts | 282° |
| 2026-05-05 01:17 | 18.35807 | -65.55702 | 20646 ft | 401 kts | 282° |
| 2026-05-05 01:17 | 18.36399 | -65.58588 | 21238 ft | 407 kts | 281° |
| 2026-05-05 01:18 | 18.37002 | -65.61529 | 21802 ft | 412 kts | 281° |
| 2026-05-05 01:18 | 18.37602 | -65.64462 | 22317 ft | 419 kts | 281° |
| 2026-05-05 01:18 | 18.38224 | -65.67486 | 22852 ft | 425 kts | 281° |
| 2026-05-05 01:18 | 18.38852 | -65.70562 | 23362 ft | 432 kts | 281° |
| 2026-05-05 01:19 | 18.39486 | -65.73669 | 23846 ft | 437 kts | 281° |
| 2026-05-05 01:19 | 18.40126 | -65.76814 | 24351 ft | 440 kts | 281° |
| 2026-05-05 01:19 | 18.40769 | -65.79968 | 24912 ft | 442 kts | 281° |
| 2026-05-05 01:19 | 18.41420 | -65.83164 | 25523 ft | 445 kts | 281° |
| 2026-05-05 01:20 | 18.42063 | -65.86321 | 26143 ft | 447 kts | 281° |
| 2026-05-05 01:20 | 18.42720 | -65.89550 | 26769 ft | 450 kts | 281° |
| 2026-05-05 01:20 | 18.43382 | -65.92780 | 27377 ft | 453 kts | 282° |
| 2026-05-05 01:20 | 18.44285 | -65.95972 | 27982 ft | 456 kts | 290° |
| 2026-05-05 01:21 | 18.45654 | -65.99002 | 28600 ft | 460 kts | 300° |
| 2026-05-05 01:21 | 18.47522 | -66.01747 | 29224 ft | 462 kts | 311° |
| 2026-05-05 01:21 | 18.49724 | -66.04227 | 29829 ft | 465 kts | 314° |
| 2026-05-05 01:21 | 18.52005 | -66.06595 | 30338 ft | 468 kts | 316° |
| 2026-05-05 01:22 | 18.54384 | -66.08972 | 30771 ft | 472 kts | 316° |
| 2026-05-05 01:22 | 18.56785 | -66.11343 | 31206 ft | 475 kts | 316° |
| 2026-05-05 01:22 | 18.59202 | -66.13737 | 31656 ft | 478 kts | 316° |
| 2026-05-05 01:22 | 18.61637 | -66.16165 | 32079 ft | 481 kts | 315° |
| 2026-05-05 01:23 | 18.64061 | -66.18600 | 32509 ft | 484 kts | 315° |
| 2026-05-05 01:23 | 18.66501 | -66.21065 | 32921 ft | 486 kts | 315° |
| 2026-05-05 01:23 | 18.68942 | -66.23539 | 33304 ft | 489 kts | 315° |
| 2026-05-05 01:23 | 18.71400 | -66.26035 | 33687 ft | 491 kts | 314° |
| 2026-05-05 01:24 | 18.73865 | -66.28539 | 34062 ft | 493 kts | 314° |
| 2026-05-05 01:24 | 18.76336 | -66.31050 | 34530 ft | 491 kts | 314° |
| 2026-05-05 01:24 | 18.78760 | -66.33513 | 35064 ft | 488 kts | 314° |
| 2026-05-05 01:24 | 18.81195 | -66.35987 | 35632 ft | 484 kts | 314° |
| 2026-05-05 01:25 | 18.83609 | -66.38440 | 36172 ft | 480 kts | 314° |
| 2026-05-05 01:25 | 18.86013 | -66.40885 | 36692 ft | 477 kts | 314° |
| 2026-05-05 01:25 | 18.88395 | -66.43309 | 37194 ft | 475 kts | 314° |
| 2026-05-05 01:25 | 18.90769 | -66.45727 | 37712 ft | 472 kts | 314° |
| 2026-05-05 01:26 | 18.93129 | -66.48130 | 38209 ft | 470 kts | 314° |
| 2026-05-05 01:26 | 18.95520 | -66.50467 | 38725 ft | 467 kts | 316° |
| 2026-05-05 01:26 | 18.97975 | -66.52711 | 39125 ft | 466 kts | 317° |
| 2026-05-05 01:26 | 19.00451 | -66.54911 | 39477 ft | 465 kts | 317° |
| 2026-05-05 01:27 | 19.02927 | -66.57103 | 39813 ft | 464 kts | 317° |
| 2026-05-05 01:27 | 19.05395 | -66.59301 | 40048 ft | 464 kts | 317° |
| 2026-05-05 01:27 | 19.10296 | -66.63721 | 40062 ft | 462 kts | 316° |
| 2026-05-05 01:28 | 19.15163 | -66.68160 | 40066 ft | 462 kts | 316° |
| 2026-05-05 01:28 | 19.19992 | -66.72573 | 40067 ft | 462 kts | 316° |
| 2026-05-05 01:29 | 19.24864 | -66.77029 | 40065 ft | 462 kts | 316° |
| 2026-05-05 01:29 | 19.29734 | -66.81484 | 40071 ft | 462 kts | 316° |
| 2026-05-05 01:30 | 19.34564 | -66.85905 | 40069 ft | 462 kts | 316° |
| 2026-05-05 01:30 | 19.39426 | -66.90359 | 40068 ft | 462 kts | 316° |
| 2026-05-05 01:31 | 19.44288 | -66.94817 | 40073 ft | 462 kts | 316° |
| 2026-05-05 01:31 | 19.49146 | -66.99275 | 40071 ft | 462 kts | 316° |
| 2026-05-05 01:32 | 19.54008 | -67.03740 | 40078 ft | 462 kts | 316° |
| 2026-05-05 01:32 | 19.58867 | -67.08206 | 40077 ft | 462 kts | 316° |
| 2026-05-05 01:33 | 19.63721 | -67.12672 | 40079 ft | 462 kts | 316° |
| 2026-05-05 01:33 | 19.68581 | -67.17147 | 40078 ft | 462 kts | 316° |
| 2026-05-05 01:34 | 19.73413 | -67.21599 | 40078 ft | 462 kts | 316° |
| 2026-05-05 01:34 | 19.78271 | -67.26080 | 40074 ft | 462 kts | 316° |
| 2026-05-05 01:35 | 19.83125 | -67.30560 | 40081 ft | 462 kts | 316° |
| 2026-05-05 01:35 | 19.87986 | -67.35051 | 40066 ft | 462 kts | 316° |
| 2026-05-05 01:36 | 19.92847 | -67.39544 | 40084 ft | 462 kts | 316° |
| 2026-05-05 01:36 | 19.97678 | -67.44015 | 40082 ft | 462 kts | 316° |
| 2026-05-05 01:37 | 20.00107 | -67.46264 | 40193 ft | 463 kts | 316° |
| 2026-05-05 01:37 | 20.02538 | -67.48521 | 40504 ft | 462 kts | 316° |
| 2026-05-05 01:37 | 20.04955 | -67.50766 | 40856 ft | 461 kts | 316° |
| 2026-05-05 01:37 | 20.07367 | -67.53007 | 41164 ft | 460 kts | 316° |
| 2026-05-05 01:38 | 20.09777 | -67.55245 | 41485 ft | 459 kts | 316° |
| 2026-05-05 01:38 | 20.12178 | -67.57477 | 41779 ft | 458 kts | 316° |
| 2026-05-05 01:38 | 20.14578 | -67.59708 | 42085 ft | 457 kts | 316° |
| 2026-05-05 01:38 | 20.16966 | -67.61929 | 42372 ft | 456 kts | 316° |
| 2026-05-05 01:39 | 20.19350 | -67.64149 | 42657 ft | 455 kts | 315° |
| 2026-05-05 01:39 | 20.21736 | -67.66371 | 42944 ft | 454 kts | 315° |
| 2026-05-05 01:39 | 20.24086 | -67.68560 | 43079 ft | 455 kts | 315° |
| 2026-05-05 01:39 | 20.26459 | -67.70773 | 43085 ft | 454 kts | 315° |
| 2026-05-05 01:40 | 20.31204 | -67.75199 | 43078 ft | 453 kts | 315° |
| 2026-05-05 01:40 | 20.35946 | -67.79625 | 43077 ft | 453 kts | 315° |
| 2026-05-05 01:41 | 20.40688 | -67.84056 | 43079 ft | 453 kts | 315° |
| 2026-05-05 01:41 | 20.45424 | -67.88484 | 43083 ft | 452 kts | 315° |
| 2026-05-05 01:42 | 20.50158 | -67.92915 | 43076 ft | 452 kts | 315° |
| 2026-05-05 01:42 | 20.54886 | -67.97344 | 43074 ft | 452 kts | 315° |
| 2026-05-05 01:43 | 20.59618 | -68.01780 | 43074 ft | 452 kts | 315° |
| 2026-05-05 01:43 | 20.64321 | -68.06192 | 43079 ft | 452 kts | 315° |
| 2026-05-05 01:44 | 20.69228 | -68.10414 | 43077 ft | 456 kts | 323° |
| 2026-05-05 01:44 | 20.75021 | -68.13294 | 43078 ft | 466 kts | 339° |
| 2026-05-05 01:45 | 20.81373 | -68.14889 | 43089 ft | 470 kts | 343° |
| 2026-05-05 01:45 | 20.87752 | -68.16246 | 43082 ft | 470 kts | 343° |
| 2026-05-05 01:46 | 20.94178 | -68.17606 | 43078 ft | 470 kts | 343° |
| 2026-05-05 01:46 | 21.00594 | -68.18998 | 43077 ft | 470 kts | 343° |
| 2026-05-05 01:47 | 21.06999 | -68.20405 | 43081 ft | 470 kts | 343° |
| 2026-05-05 01:47 | 21.13408 | -68.21818 | 43078 ft | 470 kts | 343° |
| 2026-05-05 01:48 | 21.19819 | -68.23231 | 43079 ft | 470 kts | 343° |
| 2026-05-05 01:48 | 21.26227 | -68.24643 | 43077 ft | 470 kts | 343° |
| 2026-05-05 01:49 | 21.32639 | -68.26057 | 43075 ft | 470 kts | 343° |
| 2026-05-05 01:49 | 21.39005 | -68.27462 | 43080 ft | 470 kts | 343° |
| 2026-05-05 01:50 | 21.45424 | -68.28881 | 43080 ft | 470 kts | 342° |
| 2026-05-05 01:50 | 21.51830 | -68.30297 | 43081 ft | 470 kts | 342° |
| 2026-05-05 01:51 | 21.58236 | -68.31716 | 43076 ft | 470 kts | 342° |
| 2026-05-05 01:51 | 21.64603 | -68.33126 | 43077 ft | 470 kts | 342° |
| 2026-05-05 01:52 | 21.71024 | -68.34550 | 43074 ft | 470 kts | 342° |
| 2026-05-05 01:52 | 21.77439 | -68.35974 | 43075 ft | 471 kts | 342° |
| 2026-05-05 01:53 | 21.83856 | -68.37400 | 43076 ft | 471 kts | 342° |
| 2026-05-05 01:53 | 21.90267 | -68.38825 | 43081 ft | 471 kts | 342° |
| 2026-05-05 01:54 | 21.96685 | -68.40254 | 43080 ft | 471 kts | 342° |
| 2026-05-05 01:54 | 22.03116 | -68.41686 | 43076 ft | 471 kts | 342° |
| 2026-05-05 01:55 | 22.09536 | -68.43118 | 43077 ft | 471 kts | 342° |
| 2026-05-05 01:55 | 22.15923 | -68.44543 | 43078 ft | 471 kts | 342° |
| 2026-05-05 01:56 | 22.22346 | -68.45979 | 43077 ft | 471 kts | 342° |
| 2026-05-05 01:56 | 22.28780 | -68.47417 | 43076 ft | 471 kts | 342° |
| 2026-05-05 01:57 | 22.35206 | -68.48855 | 43077 ft | 471 kts | 342° |
| 2026-05-05 01:57 | 22.41631 | -68.50295 | 43075 ft | 471 kts | 342° |
| 2026-05-05 01:58 | 22.48056 | -68.51735 | 43076 ft | 472 kts | 341° |
| 2026-05-05 01:58 | 22.54483 | -68.53178 | 43074 ft | 472 kts | 341° |
| 2026-05-05 01:59 | 22.60875 | -68.54615 | 43073 ft | 472 kts | 341° |
| 2026-05-05 01:59 | 22.67315 | -68.56063 | 43076 ft | 472 kts | 341° |
| 2026-05-05 02:00 | 22.73751 | -68.57511 | 43076 ft | 472 kts | 341° |
| 2026-05-05 02:00 | 22.79094 | -68.58715 | 43076 ft | 472 kts | 341° |
| 2026-05-05 02:01 | 22.85528 | -68.60166 | 43078 ft | 472 kts | 341° |
| 2026-05-05 02:01 | 22.91964 | -68.61619 | 43075 ft | 472 kts | 341° |
| 2026-05-05 02:02 | 22.98398 | -68.63072 | 43075 ft | 472 kts | 341° |
| 2026-05-05 02:02 | 23.04830 | -68.64527 | 43078 ft | 472 kts | 341° |
| 2026-05-05 02:03 | 23.11270 | -68.65984 | 43074 ft | 472 kts | 341° |
| 2026-05-05 02:03 | 23.17624 | -68.67424 | 43076 ft | 472 kts | 341° |
| 2026-05-05 02:04 | 23.24059 | -68.68884 | 43077 ft | 472 kts | 341° |
| 2026-05-05 02:04 | 23.30499 | -68.70346 | 43078 ft | 472 kts | 341° |
| 2026-05-05 02:05 | 23.36928 | -68.71807 | 43075 ft | 472 kts | 341° |
| 2026-05-05 02:05 | 23.43357 | -68.73270 | 43079 ft | 472 kts | 341° |
| 2026-05-05 02:06 | 23.49789 | -68.74734 | 43083 ft | 472 kts | 341° |
| 2026-05-05 02:06 | 23.56216 | -68.76199 | 43078 ft | 472 kts | 341° |
| 2026-05-05 02:07 | 23.62607 | -68.77657 | 43078 ft | 471 kts | 340° |
| 2026-05-05 02:07 | 23.69023 | -68.79123 | 43074 ft | 471 kts | 340° |
| 2026-05-05 02:08 | 23.75449 | -68.80592 | 43073 ft | 471 kts | 340° |
| 2026-05-05 02:08 | 23.81867 | -68.82061 | 43075 ft | 471 kts | 340° |
| 2026-05-05 02:09 | 23.88297 | -68.83534 | 43083 ft | 471 kts | 340° |
| 2026-05-05 02:09 | 23.94726 | -68.85008 | 43079 ft | 471 kts | 340° |
| 2026-05-05 02:10 | 24.01146 | -68.86482 | 43071 ft | 471 kts | 340° |
| 2026-05-05 02:10 | 24.07521 | -68.87947 | 43077 ft | 471 kts | 340° |
| 2026-05-05 02:11 | 24.13949 | -68.89425 | 43074 ft | 472 kts | 340° |
| 2026-05-05 02:11 | 24.20368 | -68.90903 | 43075 ft | 472 kts | 340° |
| 2026-05-05 02:12 | 24.30021 | -68.93129 | 43074 ft | 472 kts | 340° |
| 2026-05-05 02:13 | 24.36459 | -68.94616 | 43073 ft | 472 kts | 340° |
| 2026-05-05 02:13 | 24.42858 | -68.96094 | 43074 ft | 473 kts | 340° |
| 2026-05-05 02:14 | 24.49302 | -68.97585 | 43075 ft | 473 kts | 340° |
| 2026-05-05 02:14 | 24.55745 | -68.99077 | 43076 ft | 473 kts | 340° |
| 2026-05-05 02:15 | 24.62201 | -69.00574 | 43062 ft | 474 kts | 340° |
| 2026-05-05 02:15 | 24.68662 | -69.02074 | 43072 ft | 474 kts | 340° |
| 2026-05-05 02:16 | 24.75132 | -69.03577 | 43071 ft | 475 kts | 340° |
| 2026-05-05 02:16 | 24.81557 | -69.05071 | 43073 ft | 475 kts | 339° |
| 2026-05-05 02:17 | 24.88044 | -69.06581 | 43075 ft | 476 kts | 339° |
| 2026-05-05 02:17 | 24.94535 | -69.08094 | 43071 ft | 476 kts | 339° |
| 2026-05-05 02:18 | 25.01023 | -69.09607 | 43071 ft | 477 kts | 339° |
| 2026-05-05 02:18 | 25.07522 | -69.10992 | 43072 ft | 479 kts | 341° |
| 2026-05-05 02:19 | 25.14089 | -69.12303 | 43070 ft | 480 kts | 341° |
| 2026-05-05 02:19 | 25.20661 | -69.13632 | 43071 ft | 480 kts | 341° |
| 2026-05-05 02:20 | 25.27230 | -69.14982 | 43069 ft | 480 kts | 341° |
| 2026-05-05 02:20 | 25.33799 | -69.16342 | 43069 ft | 480 kts | 341° |
| 2026-05-05 02:21 | 25.40375 | -69.17705 | 43068 ft | 480 kts | 341° |
| 2026-05-05 02:21 | 25.46940 | -69.19067 | 43070 ft | 480 kts | 340° |
| 2026-05-05 02:22 | 25.53472 | -69.20422 | 43070 ft | 480 kts | 340° |
| 2026-05-05 02:22 | 25.60051 | -69.21789 | 43069 ft | 481 kts | 340° |
| 2026-05-05 02:23 | 25.66625 | -69.23157 | 43072 ft | 481 kts | 340° |
| 2026-05-05 02:23 | 25.73204 | -69.24527 | 43068 ft | 481 kts | 340° |
| 2026-05-05 02:24 | 25.79792 | -69.25901 | 43068 ft | 481 kts | 340° |
| 2026-05-05 02:24 | 25.86377 | -69.27275 | 43068 ft | 482 kts | 340° |
| 2026-05-05 02:25 | 25.92970 | -69.28653 | 43070 ft | 482 kts | 340° |
| 2026-05-05 02:25 | 25.99537 | -69.30027 | 43072 ft | 483 kts | 340° |
| 2026-05-05 02:26 | 26.06145 | -69.31411 | 43076 ft | 483 kts | 340° |
| 2026-05-05 02:26 | 26.12769 | -69.32800 | 43066 ft | 484 kts | 340° |
| 2026-05-05 02:27 | 26.19390 | -69.34190 | 43070 ft | 484 kts | 340° |
| 2026-05-05 02:27 | 26.25996 | -69.35578 | 43070 ft | 485 kts | 340° |
| 2026-05-05 02:28 | 26.32642 | -69.36976 | 43069 ft | 486 kts | 340° |
| 2026-05-05 02:28 | 26.39288 | -69.38376 | 43070 ft | 486 kts | 340° |
| 2026-05-05 02:29 | 26.45913 | -69.39773 | 43066 ft | 487 kts | 340° |
| 2026-05-05 02:29 | 26.52572 | -69.41180 | 43067 ft | 487 kts | 340° |
| 2026-05-05 02:30 | 26.59238 | -69.42589 | 43067 ft | 487 kts | 340° |
| 2026-05-05 02:30 | 26.65905 | -69.44000 | 43064 ft | 488 kts | 340° |
| 2026-05-05 02:31 | 26.72575 | -69.45413 | 43065 ft | 488 kts | 340° |
| 2026-05-05 02:31 | 26.79258 | -69.46837 | 43065 ft | 488 kts | 340° |
| 2026-05-05 02:32 | 26.85937 | -69.48252 | 43070 ft | 489 kts | 340° |
| 2026-05-05 02:32 | 26.92620 | -69.49671 | 43062 ft | 489 kts | 340° |
| 2026-05-05 02:33 | 26.99309 | -69.51095 | 43064 ft | 489 kts | 341° |
| 2026-05-05 02:33 | 27.05954 | -69.52511 | 43067 ft | 489 kts | 341° |
| 2026-05-05 02:34 | 27.12642 | -69.53939 | 43060 ft | 489 kts | 341° |
| 2026-05-05 02:34 | 27.19351 | -69.55373 | 43063 ft | 490 kts | 341° |
| 2026-05-05 02:35 | 27.26055 | -69.56807 | 43061 ft | 490 kts | 341° |
| 2026-05-05 02:35 | 27.32718 | -69.58235 | 43063 ft | 490 kts | 341° |
| 2026-05-05 02:36 | 27.39422 | -69.59672 | 43070 ft | 490 kts | 341° |
| 2026-05-05 02:36 | 27.46128 | -69.61112 | 43066 ft | 490 kts | 341° |
| 2026-05-05 02:37 | 27.52830 | -69.62554 | 43071 ft | 490 kts | 341° |
| 2026-05-05 02:37 | 27.59489 | -69.63987 | 43070 ft | 490 kts | 341° |
| 2026-05-05 02:38 | 27.66189 | -69.65431 | 43075 ft | 490 kts | 341° |
| 2026-05-05 02:38 | 27.72907 | -69.66880 | 43075 ft | 490 kts | 340° |
| 2026-05-05 02:39 | 27.79605 | -69.68327 | 43077 ft | 490 kts | 340° |
| 2026-05-05 02:39 | 27.86310 | -69.69778 | 43083 ft | 490 kts | 340° |
| 2026-05-05 02:40 | 27.92964 | -69.71219 | 43089 ft | 490 kts | 340° |
| 2026-05-05 02:40 | 27.99674 | -69.72675 | 43093 ft | 491 kts | 340° |
| 2026-05-05 02:41 | 28.06384 | -69.74132 | 43089 ft | 491 kts | 340° |
| 2026-05-05 02:41 | 28.13098 | -69.75592 | 43092 ft | 491 kts | 340° |
| 2026-05-05 02:42 | 28.19817 | -69.77056 | 43095 ft | 491 kts | 340° |
| 2026-05-05 02:42 | 28.26534 | -69.78520 | 43091 ft | 492 kts | 340° |
| 2026-05-05 02:43 | 28.33256 | -69.79988 | 43093 ft | 492 kts | 340° |
| 2026-05-05 02:43 | 28.39979 | -69.81458 | 43087 ft | 492 kts | 340° |
| 2026-05-05 02:44 | 28.46666 | -69.82922 | 43091 ft | 492 kts | 340° |
| 2026-05-05 02:44 | 28.53406 | -69.84399 | 43099 ft | 493 kts | 340° |
| 2026-05-05 02:45 | 28.60150 | -69.85878 | 43102 ft | 493 kts | 340° |
| 2026-05-05 02:45 | 28.66881 | -69.87357 | 43101 ft | 493 kts | 340° |
| 2026-05-05 02:46 | 28.73593 | -69.88834 | 43100 ft | 493 kts | 340° |
| 2026-05-05 02:46 | 28.80334 | -69.90320 | 43106 ft | 493 kts | 340° |
| 2026-05-05 02:47 | 28.87082 | -69.91808 | 43102 ft | 494 kts | 340° |
| 2026-05-05 02:47 | 28.93838 | -69.93300 | 43107 ft | 494 kts | 340° |
| 2026-05-05 02:48 | 29.00552 | -69.94786 | 43111 ft | 494 kts | 340° |
| 2026-05-05 02:48 | 29.07301 | -69.96280 | 43109 ft | 494 kts | 340° |
| 2026-05-05 02:49 | 29.12910 | -69.97524 | 43118 ft | 494 kts | 340° |
| 2026-05-05 02:49 | 29.19661 | -69.99022 | 43108 ft | 494 kts | 340° |
| 2026-05-05 02:50 | 29.26404 | -70.00521 | 43109 ft | 494 kts | 340° |
| 2026-05-05 02:50 | 29.33152 | -70.02024 | 43109 ft | 494 kts | 340° |
| 2026-05-05 02:51 | 29.39904 | -70.03530 | 43115 ft | 494 kts | 340° |
| 2026-05-05 02:51 | 29.46650 | -70.05036 | 43116 ft | 493 kts | 340° |
| 2026-05-05 02:52 | 29.53393 | -70.06543 | 43117 ft | 493 kts | 340° |
| 2026-05-05 02:52 | 29.60090 | -70.08042 | 43117 ft | 493 kts | 340° |
| 2026-05-05 02:53 | 29.66819 | -70.09550 | 43118 ft | 493 kts | 340° |
| 2026-05-05 02:53 | 29.73572 | -70.11065 | 43120 ft | 493 kts | 340° |
| 2026-05-05 02:54 | 29.80317 | -70.12581 | 43124 ft | 493 kts | 340° |
| 2026-05-05 02:54 | 29.87009 | -70.14087 | 43127 ft | 493 kts | 340° |
| 2026-05-05 02:55 | 29.93742 | -70.15605 | 43127 ft | 492 kts | 340° |